Time;durP1;ratioP1;P1;durP2;ratioP2;P2;SDS_P1;SDS_P2;PMS_P1;PMS_P2;Temp;Humidity;BMP_temperature;BMP_pressure;BME280_temperature;BME280_humidity;BME280_pressure;Samples;Min_cycle;Max_cycle;Signal;HPM_P1;HPM_P2
2023/01/04 00:01:40;;;;;;;;;;;;;;;-144.99;98.09;52562.25;5051047;28;19959;-76
2023/01/04 00:04:06;;;;;;;;;;;;;;;-144.99;97.62;52568.34;5051980;28;19928;-74
2023/01/04 00:06:34;;;;;;;;;;;;;;;-144.99;97.11;52566.31;5044967;28;19961;-75
2023/01/04 00:09:01;;;;;;;;;;;;;;;-144.99;96.63;52570.38;5047781;28;19947;-75
2023/01/04 00:11:27;;;;;;;;;;;;;;;-144.99;96.41;52521.47;5047935;28;19929;-75
2023/01/04 00:13:56;;;;;;;;;;;;;;;-144.99;96.08;52550.00;5049008;28;20001;-78
2023/01/04 00:16:23;;;;;;;;;;;;;;;-144.99;95.86;52574.47;5051588;28;19927;-75
2023/01/04 00:18:50;;;;;;;;;;;;;;;-144.99;95.58;52543.91;5049340;28;19943;-75
2023/01/04 00:21:18;;;;;;;;;;;;;;;-144.99;95.35;52552.03;5050867;28;19929;-75
2023/01/04 00:23:47;;;;;;;;;;;;;;;-144.99;95.65;52558.16;5049733;28;19976;-76
2023/01/04 00:26:15;;;;;;;;;;;;;;;-144.99;95.27;52554.09;5050703;28;19969;-75
2023/01/04 00:28:42;;;;;;;;;;;;;;;-144.99;93.99;52521.47;5044588;28;19938;-77
2023/01/04 00:31:09;;;;;;;;;;;;;;;-144.99;94.62;52541.84;5049643;28;19932;-75
2023/01/04 00:33:35;;;;;;;;;;;;;;;-144.99;94.61;52554.09;5049197;28;19960;-76
2023/01/04 00:36:03;;;;;;;;;;;;;;;-144.99;94.52;52541.84;5055672;28;19933;-75
2023/01/04 00:38:29;;;;;;;;;;;;;;;-144.99;93.97;52598.94;5050674;28;20264;-74
2023/01/04 00:40:57;;;;;;;;;;;;;;;-144.99;94.20;52513.31;5033345;28;19964;-74
2023/01/04 00:43:24;;;;;;;;;;;;;;;-144.99;94.72;52537.78;5037419;28;19950;-74
2023/01/04 00:45:50;;;;;;;;;;;;;;;-144.99;94.39;52562.25;5045799;28;20061;-75
2023/01/04 00:48:16;;;;;;;;;;;;;;;-144.99;94.50;52525.56;5050759;28;19964;-73
2023/01/04 00:50:43;;;;;;;;;;;;;;;-144.99;94.15;52572.44;5027492;28;20033;-73
2023/01/04 00:53:10;;;;;;;;;;;;;;;-144.99;93.97;52582.63;5027516;28;19929;-75
2023/01/04 00:55:36;;;;;;;;;;;;;;;-144.99;93.16;52582.63;5023727;28;20458;-74
2023/01/04 00:58:04;;;;;;;;;;;;;;;-144.99;93.49;52537.78;5025369;28;20042;-74
2023/01/04 01:00:31;;;;;;;;;;;;;;;-144.99;93.42;52578.53;5023820;28;20015;-73
2023/01/04 01:02:57;;;;;;;;;;;;;;;-144.99;93.16;52529.63;5024937;28;19980;-73
2023/01/04 01:05:24;;;;;;;;;;;;;;;-144.99;93.50;52554.09;5013870;28;20000;-74
2023/01/04 01:07:50;;;;;;;;;;;;;;;-144.99;93.27;52590.78;5024810;28;20859;-73
2023/01/04 01:10:17;;;;;;;;;;;;;;;-144.99;92.86;52550.00;5024395;28;20442;-73
2023/01/04 01:12:43;;;;;;;;;;;;;;;-144.99;93.08;52525.56;5011200;28;20044;-72
2023/01/04 01:15:11;;;;;;;;;;;;;;;-144.99;92.95;52580.59;5033591;28;20038;-74
2023/01/04 01:17:38;;;;;;;;;;;;;;;-144.99;92.48;52562.25;5045356;28;19927;-75
2023/01/04 01:20:05;;;;;;;;;;;;;;;-144.99;92.79;52531.66;4674103;28;10000575;-72
2023/01/04 01:22:32;;;;;;;;;;;;;;;-144.99;92.81;52574.47;5024603;28;19957;-73
2023/01/04 01:24:58;;;;;;;;;;;;;;;-144.99;92.93;52562.25;5039733;28;20002;-73
2023/01/04 01:27:25;;;;;;;;;;;;;;;-144.99;92.98;52521.47;5041377;28;19948;-74
2023/01/04 01:29:51;;;;;;;;;;;;;;;-144.99;92.73;52554.09;5046447;28;19936;-72
2023/01/04 01:32:19;;;;;;;;;;;;;;;-144.99;92.48;52564.28;5043857;28;19956;-73
2023/01/04 01:34:46;;;;;;;;;;;;;;;-144.99;92.37;52537.78;5045009;28;19944;-72
2023/01/04 01:37:12;;;;;;;;;;;;;;;-144.99;92.09;52550.00;5043131;28;19944;-72
2023/01/04 01:39:38;;;;;;;;;;;;;;;-144.99;92.35;52537.78;5043000;28;19939;-72
2023/01/04 01:42:05;;;;;;;;;;;;;;;-144.99;92.31;52550.00;5039065;28;19975;-72
2023/01/04 01:44:57;;;;;;;;;;;;;;;-144.99;92.20;52572.44;5040635;28;20199;-73
2023/01/04 01:47:26;;;;;;;;;;;;;;;-144.99;91.60;52554.09;5039644;28;19943;-72
2023/01/04 01:49:53;;;;;;;;;;;;;;;-144.99;91.56;52562.25;5025692;28;20034;-72
2023/01/04 01:52:22;;;;;;;;;;;;;;;-144.99;91.82;52550.00;5023476;28;20013;-72
2023/01/04 01:54:52;;;;;;;;;;;;;;;-144.99;91.65;52509.25;5033603;28;20511;-72
2023/01/04 01:57:19;;;;;;;;;;;;;;;-144.99;91.37;52562.25;5038106;28;20396;-70
2023/01/04 01:59:47;;;;;;;;;;;;;;;-144.99;91.25;52562.25;5023901;28;19948;-70
2023/01/04 02:02:14;;;;;;;;;;;;;;;-144.99;91.55;52552.03;5024292;28;19960;-73
2023/01/04 02:04:45;;;;;;;;;;;;;;;-144.99;91.22;52550.00;5023424;28;20348;-70
2023/01/04 02:07:13;;;;;;;;;;;;;;;-144.99;91.20;52529.63;5023752;28;20499;-71
2023/01/04 02:09:39;;;;;;;;;;;;;;;-144.99;91.62;52541.84;5024673;28;19943;-71
2023/01/04 02:12:10;;;;;;;;;;;;;;;-144.99;91.39;52550.00;5024365;28;19961;-72
2023/01/04 02:14:37;;;;;;;;;;;;;;;-144.99;91.11;52552.03;5022743;28;20340;-74
2023/01/04 02:17:08;;;;;;;;;;;;;;;-144.99;91.00;52598.94;5022013;28;20028;-72
2023/01/04 02:19:42;;;;;;;;;;;;;;;-144.99;90.29;52564.28;5020386;28;20566;-69
2023/01/04 02:22:36;;;;;;;;;;;;;;;-144.99;89.88;52521.47;5021885;28;20005;-71
2023/01/04 02:25:19;;;;;;;;;;;;;;;-144.99;90.13;52566.31;5010590;28;19978;-72
2023/01/04 02:27:49;;;;;;;;;;;;;;;-144.99;89.77;52596.88;5021539;28;20473;-70
2023/01/04 02:30:34;;;;;;;;;;;;;;;-144.99;89.82;52554.09;5027275;28;19951;-71
2023/01/04 02:33:07;;;;;;;;;;;;;;;-144.99;89.77;52521.47;5030827;28;19973;-73
2023/01/04 02:35:38;;;;;;;;;;;;;;;-144.99;89.53;52564.28;5050885;28;20004;-73
2023/01/04 02:38:10;;;;;;;;;;;;;;;-144.99;89.99;52558.16;5026381;28;20050;-72
2023/01/04 02:40:42;;;;;;;;;;;;;;;-144.99;90.00;52562.25;5024740;28;20061;-73
2023/01/04 02:46:02;;;;;;;;;;;;;;;-144.99;89.86;52566.31;5019193;28;19967;-73
2023/01/04 02:51:25;;;;;;;;;;;;;;;-144.99;92.06;52558.16;5046660;28;19947;-73
2023/01/04 02:53:52;;;;;;;;;;;;;;;-144.99;92.88;52539.81;5043455;28;20031;-74
2023/01/04 02:56:34;;;;;;;;;;;;;;;-144.99;93.33;52541.84;5045011;28;20077;-75
2023/01/04 02:59:05;;;;;;;;;;;;;;;-144.99;94.36;52541.84;5042856;28;20472;-77
2023/01/04 03:07:23;;;;;;;;;;;;;;;-144.99;95.28;52598.94;5061069;28;20019;-70
2023/01/04 03:09:52;;;;;;;;;;;;;;;-144.99;96.78;52554.09;5068414;28;19978;-73
2023/01/04 03:12:31;;;;;;;;;;;;;;;-144.99;97.08;52578.53;5052905;28;20035;-70
2023/01/04 03:15:00;;;;;;;;;;;;;;;-144.99;98.77;52543.91;5044633;28;19939;-73
2023/01/04 03:17:28;;;;;;;;;;;;;;;-144.99;99.79;52529.63;5045828;28;19943;-72
2023/01/04 03:19:58;;;;;;;;;;;;;;;-144.99;100.00;52570.38;5048808;28;19997;-73
2023/01/04 03:36:32;;;;;;;;;;;;;;;-144.99;100.00;52570.38;5048292;28;20373;-70
2023/01/04 03:50:11;;;;;;;;;;;;;;;-144.99;100.00;52564.28;5047838;28;20006;-73
2023/01/04 03:52:40;;;;;;;;;;;;;;;-144.99;100.00;52582.63;5052555;28;20365;-73
2023/01/04 03:55:07;;;;;;;;;;;;;;;-144.99;100.00;52562.25;5045905;28;19994;-70
2023/01/04 03:57:34;;;;;;;;;;;;;;;-144.99;100.00;52554.09;5047388;28;19979;-72
2023/01/04 04:00:04;;;;;;;;;;;;;;;-144.99;100.00;52566.31;5045534;28;19948;-72
2023/01/04 04:02:31;;;;;;;;;;;;;;;-144.99;100.00;52570.38;5039460;28;19937;-75
2023/01/04 04:10:27;;;;;;;;;;;;;;;-144.99;100.00;52564.28;5046619;28;20431;-72
2023/01/04 04:12:53;;;;;;;;;;;;;;;-144.99;100.00;52558.16;5052395;28;20026;-72
2023/01/04 04:15:19;;;;;;;;;;;;;;;-144.99;100.00;52580.59;5044390;28;20018;-71
2023/01/04 04:17:46;;;;;;;;;;;;;;;-144.99;100.00;52550.00;5046174;28;19987;-73
2023/01/04 04:20:13;;;;;;;;;;;;;;;-144.99;100.00;52537.78;5045733;28;20039;-72
2023/01/04 04:22:39;;;;;;;;;;;;;;;-144.99;100.00;52594.84;5038005;28;19967;-71
2023/01/04 04:25:07;;;;;;;;;;;;;;;-144.99;100.00;52558.16;5045310;28;20461;-72
2023/01/04 04:27:34;;;;;;;;;;;;;;;-144.99;100.00;52541.84;5045743;28;20047;-71
2023/01/04 04:30:01;;;;;;;;;;;;;;;-144.99;100.00;52558.16;5045494;28;20045;-70
2023/01/04 04:32:28;;;;;;;;;;;;;;;-144.99;100.00;52541.84;5047865;28;19949;-70
2023/01/04 04:34:54;;;;;;;;;;;;;;;-144.99;100.00;52598.94;5046655;28;19954;-70
2023/01/04 04:37:20;;;;;;;;;;;;;;;-144.99;100.00;52562.25;5050758;28;19986;-71
2023/01/04 04:39:47;;;;;;;;;;;;;;;-144.99;100.00;52533.69;5063051;28;19977;-71
2023/01/04 04:42:14;;;;;;;;;;;;;;;-144.99;100.00;52570.38;5054286;28;19986;-75
2023/01/04 04:44:40;;;;;;;;;;;;;;;-144.99;100.00;52541.84;5062200;28;20535;-75
2023/01/04 04:47:07;;;;;;;;;;;;;;;-144.99;100.00;52550.00;5046319;28;19996;-72
2023/01/04 04:49:33;;;;;;;;;;;;;;;-144.99;100.00;52582.63;5049095;28;19995;-73
2023/01/04 04:52:00;;;;;;;;;;;;;;;-144.99;100.00;52594.84;5055316;28;20008;-70
2023/01/04 04:54:26;;;;;;;;;;;;;;;-144.99;100.00;52570.38;5051834;28;19996;-72
2023/01/04 04:56:52;;;;;;;;;;;;;;;-144.99;100.00;52521.47;5049225;28;20513;-73
2023/01/04 04:59:20;;;;;;;;;;;;;;;-144.99;100.00;52554.09;5048475;28;20408;-73
2023/01/04 05:01:47;;;;;;;;;;;;;;;-144.99;100.00;52529.63;5046638;28;20064;-70
2023/01/04 05:04:15;;;;;;;;;;;;;;;-144.99;100.00;52570.38;5044676;28;19992;-72
2023/01/04 05:06:41;;;;;;;;;;;;;;;-144.99;100.00;52564.28;5048993;28;19961;-74
2023/01/04 05:09:08;;;;;;;;;;;;;;;-144.99;100.00;52521.47;5048305;28;19946;-71
2023/01/04 05:14:18;;;;;;;;;;;;;;;-144.99;100.00;52560.19;5044886;28;19967;-74
2023/01/04 05:16:46;;;;;;;;;;;;;;;-144.99;100.00;52517.41;5048408;28;19995;-73
2023/01/04 05:19:13;;;;;;;;;;;;;;;-144.99;100.00;52509.25;5046612;28;19994;-73
2023/01/04 05:21:40;;;;;;;;;;;;;;;-144.99;100.00;52545.94;5046428;28;19973;-74
2023/01/04 05:24:06;;;;;;;;;;;;;;;-144.99;100.00;52521.47;5064131;28;19976;-76
2023/01/04 05:26:33;;;;;;;;;;;;;;;-144.99;100.00;52562.25;5066673;28;20105;-77
2023/01/04 05:28:59;;;;;;;;;;;;;;;-144.99;100.00;52550.00;5049833;28;20740;-76
2023/01/04 05:31:25;;;;;;;;;;;;;;;-144.99;100.00;52547.97;5043940;28;20071;-74
2023/01/04 05:33:52;;;;;;;;;;;;;;;-144.99;100.00;52541.84;5046831;28;20413;-75
2023/01/04 05:36:19;;;;;;;;;;;;;;;-144.99;100.00;52529.63;5043935;28;20036;-72
2023/01/04 05:38:45;;;;;;;;;;;;;;;-144.99;100.00;52550.00;5047313;28;20340;-74
2023/01/04 05:43:52;;;;;;;;;;;;;;;-144.99;100.00;52523.50;5044401;28;19967;-74
2023/01/04 05:46:19;;;;;;;;;;;;;;;-144.99;100.00;52545.94;5044421;28;19991;-71
2023/01/04 05:48:45;;;;;;;;;;;;;;;-144.99;100.00;52541.84;5044568;28;20032;-74
2023/01/04 05:51:13;;;;;;;;;;;;;;;-144.99;100.00;52505.16;5046093;28;19966;-72
2023/01/04 05:53:39;;;;;;;;;;;;;;;-144.99;100.00;52533.69;5052092;28;20008;-76
2023/01/04 05:56:06;;;;;;;;;;;;;;;-144.99;100.00;52554.09;5068066;28;19943;-74
2023/01/04 05:58:33;;;;;;;;;;;;;;;-144.99;100.00;52550.00;5049865;28;19983;-72
2023/01/04 06:00:59;;;;;;;;;;;;;;;-144.99;100.00;52558.16;5042838;28;19985;-74
2023/01/04 06:03:26;;;;;;;;;;;;;;;-144.99;100.00;52550.00;5036739;28;19990;-76
2023/01/04 06:05:52;;;;;;;;;;;;;;;-144.99;100.00;52550.00;5045157;28;20036;-76
2023/01/04 06:08:20;;;;;;;;;;;;;;;-144.99;100.00;52545.94;5042264;28;19940;-74
2023/01/04 06:10:52;;;;;;;;;;;;;;;-144.99;100.00;52543.91;5044857;28;19978;-75
2023/01/04 06:13:30;;;;;;;;;;;;;;;-144.99;100.00;52521.47;4756299;28;10000052;-77
2023/01/04 06:15:56;;;;;;;;;;;;;;;-144.99;100.00;52541.84;5040854;28;20024;-77
2023/01/04 06:18:23;;;;;;;;;;;;;;;-144.99;100.00;52550.00;5042191;28;20005;-76
2023/01/04 06:20:50;;;;;;;;;;;;;;;-144.99;100.00;52484.78;5041421;28;20048;-78
2023/01/04 06:23:17;;;;;;;;;;;;;;;-144.99;100.00;52509.25;5054023;28;19964;-78
2023/01/04 06:25:45;;;;;;;;;;;;;;;-144.99;100.00;52541.84;5062847;28;19981;-75
2023/01/04 06:28:11;;;;;;;;;;;;;;;-144.99;100.00;52521.47;5050766;28;20077;-76
2023/01/04 06:30:37;;;;;;;;;;;;;;;-144.99;100.00;52513.31;5059231;28;19931;-79
2023/01/04 06:33:04;;;;;;;;;;;;;;;-144.99;100.00;52533.69;5055829;28;20388;-78
2023/01/04 06:35:30;;;;;;;;;;;;;;;-144.99;100.00;52525.56;5043236;28;20063;-77
2023/01/04 06:37:57;;;;;;;;;;;;;;;-144.99;100.00;52476.63;5043607;28;20054;-78
2023/01/04 06:40:23;;;;;;;;;;;;;;;-144.99;100.00;52539.81;5064309;28;20007;-78
2023/01/04 06:42:51;;;;;;;;;;;;;;;-144.99;100.00;52521.47;5053364;28;19972;-77
2023/01/04 06:45:17;;;;;;;;;;;;;;;-144.99;100.00;52529.63;5045685;28;20055;-77
2023/01/04 06:47:46;;;;;;;;;;;;;;;-144.99;100.00;52492.94;5046398;28;20370;-78
2023/01/04 06:50:13;;;;;;;;;;;;;;;-144.99;100.00;52521.47;5046197;28;20326;-77
2023/01/04 06:52:40;;;;;;;;;;;;;;;-144.99;100.00;52501.09;5046356;28;20007;-77
2023/01/04 06:55:08;;;;;;;;;;;;;;;-144.99;100.00;52511.28;5046204;28;19928;-77
2023/01/04 06:57:34;;;;;;;;;;;;;;;-144.99;100.00;52521.47;5047460;28;20403;-78
2023/01/04 07:00:02;;;;;;;;;;;;;;;-144.99;100.00;52550.00;5050828;28;20672;-78
2023/01/04 07:02:29;;;;;;;;;;;;;;;-144.99;100.00;52533.69;5066071;28;19928;-78
2023/01/04 07:04:55;;;;;;;;;;;;;;;-144.99;100.00;52521.47;5067191;28;20008;-79
2023/01/04 07:07:22;;;;;;;;;;;;;;;-144.99;100.00;52521.47;5088528;28;19931;-79
2023/01/04 07:09:48;;;;;;;;;;;;;;;-144.99;100.00;52545.94;5076893;28;20272;-74
2023/01/04 07:12:15;;;;;;;;;;;;;;;-144.99;100.00;52519.44;5053378;28;19928;-76
2023/01/04 07:14:41;;;;;;;;;;;;;;;-144.99;100.00;52517.41;5045353;28;19932;-80
2023/01/04 07:17:09;;;;;;;;;;;;;;;-144.99;100.00;52533.69;5047528;28;20071;-79
2023/01/04 07:19:35;;;;;;;;;;;;;;;-144.99;100.00;52503.13;5048589;28;19960;-79
2023/01/04 07:22:02;;;;;;;;;;;;;;;-144.99;100.00;52499.06;5049749;28;19983;-80
2023/01/04 07:24:28;;;;;;;;;;;;;;;-144.99;100.00;52521.47;5050076;28;19964;-80
2023/01/04 07:26:55;;;;;;;;;;;;;;;-144.99;100.00;52494.97;5046291;28;20027;-74
2023/01/04 07:29:21;;;;;;;;;;;;;;;-144.99;100.00;52517.41;5039662;28;19991;-75
2023/01/04 07:31:49;;;;;;;;;;;;;;;-144.99;100.00;52527.59;5045974;28;20319;-78
2023/01/04 07:34:18;;;;;;;;;;;;;;;-144.99;100.00;52521.47;5046233;28;20486;-78
2023/01/04 07:36:44;;;;;;;;;;;;;;;-144.99;100.00;52511.28;5046282;28;19956;-77
2023/01/04 07:39:11;;;;;;;;;;;;;;;-144.99;100.00;52513.31;5045233;28;19964;-79
2023/01/04 07:41:38;;;;;;;;;;;;;;;-144.99;100.00;52484.78;5059368;28;19935;-78
2023/01/04 07:44:05;;;;;;;;;;;;;;;-144.99;100.00;52525.56;5057650;28;19940;-78
2023/01/04 07:46:32;;;;;;;;;;;;;;;-144.99;100.00;52513.31;5047530;28;19933;-79
2023/01/04 07:48:58;;;;;;;;;;;;;;;-144.99;100.00;52480.72;5048349;28;19928;-78
2023/01/04 07:51:27;;;;;;;;;;;;;;;-144.99;100.00;52509.25;4697583;28;9999858;-80
2023/01/04 07:53:53;;;;;;;;;;;;;;;-144.99;100.00;52529.63;5045908;28;20022;-76
2023/01/04 07:56:20;;;;;;;;;;;;;;;-144.99;100.00;52523.50;5047825;28;19963;-78
2023/01/04 07:58:46;;;;;;;;;;;;;;;-144.99;100.00;52492.94;5047776;28;19982;-79
2023/01/04 08:01:13;;;;;;;;;;;;;;;-144.99;100.00;52476.63;5045891;28;20012;-79
2023/01/04 08:03:40;;;;;;;;;;;;;;;-144.99;100.00;52492.94;5047514;28;19956;-76
2023/01/04 08:06:07;;;;;;;;;;;;;;;-144.99;100.00;52499.06;4695973;28;10000200;-78
2023/01/04 08:08:35;;;;;;;;;;;;;;;-144.99;100.00;52517.41;5045215;28;20035;-76
2023/01/04 08:11:02;;;;;;;;;;;;;;;-144.99;100.00;52456.25;5045303;28;20506;-76
2023/01/04 08:13:28;;;;;;;;;;;;;;;-144.99;100.00;52517.41;5044749;28;19935;-78
2023/01/04 08:15:55;;;;;;;;;;;;;;;-144.99;100.00;52513.31;5043935;28;20047;-78
2023/01/04 08:18:22;;;;;;;;;;;;;;;-144.99;100.00;52501.09;5045267;28;19933;-76
2023/01/04 08:20:48;;;;;;;;;;;;;;;-144.99;100.00;52501.09;5068480;28;19923;-82
2023/01/04 08:23:15;;;;;;;;;;;;;;;-144.99;100.00;52517.41;5058029;28;19924;-78
2023/01/04 08:25:42;;;;;;;;;;;;;;;-144.99;100.00;52505.16;5045183;28;19990;-78
2023/01/04 08:28:09;;;;;;;;;;;;;;;-144.99;100.00;52505.16;5046416;28;20554;-78
2023/01/04 08:30:36;;;;;;;;;;;;;;;-144.99;100.00;52505.16;5044542;28;19956;-79
2023/01/04 08:33:02;;;;;;;;;;;;;;;-144.99;100.00;52501.09;5046118;28;20468;-78
2023/01/04 08:35:29;;;;;;;;;;;;;;;-144.99;100.00;52517.41;5044584;28;19929;-77
2023/01/04 08:37:55;;;;;;;;;;;;;;;-144.99;100.00;52505.16;5045015;28;19956;-77
2023/01/04 08:40:22;;;;;;;;;;;;;;;-144.99;100.00;52519.44;5046887;28;19928;-79
2023/01/04 08:42:49;;;;;;;;;;;;;;;-144.99;100.00;52497.00;5053420;28;20180;-79
2023/01/04 08:45:16;;;;;;;;;;;;;;;-144.99;100.00;52509.25;5060456;22;19971;-76
2023/01/04 08:47:42;;;;;;;;;;;;;;;-144.99;100.00;52492.94;5053826;28;19929;-77
2023/01/04 08:50:09;;;;;;;;;;;;;;;-144.99;100.00;52464.41;5052542;28;19948;-77
2023/01/04 08:52:35;;;;;;;;;;;;;;;-144.99;100.00;52517.41;5067680;28;19955;-77
2023/01/04 08:55:02;;;;;;;;;;;;;;;-144.99;100.00;52509.25;5068734;28;20159;-77
2023/01/04 08:57:28;;;;;;;;;;;;;;;-144.99;100.00;52480.72;5068990;28;19949;-77
2023/01/04 08:59:56;;;;;;;;;;;;;;;-144.99;100.00;52521.47;5054139;28;20027;-77
2023/01/04 09:02:24;;;;;;;;;;;;;;;-144.99;100.00;52509.25;5048643;28;19959;-77
2023/01/04 09:04:50;;;;;;;;;;;;;;;-144.99;100.00;52501.09;5056360;28;20067;-77
2023/01/04 09:07:17;;;;;;;;;;;;;;;-144.99;100.00;52501.09;5045997;28;20062;-78
2023/01/04 09:09:44;;;;;;;;;;;;;;;-144.99;100.00;52476.63;5049274;28;20010;-77
2023/01/04 09:12:11;;;;;;;;;;;;;;;-144.99;100.00;52476.63;5047817;28;20033;-77
2023/01/04 09:14:38;;;;;;;;;;;;;;;-144.99;100.00;52484.78;5045787;28;19967;-77
2023/01/04 09:17:06;;;;;;;;;;;;;;;-144.99;100.00;52494.97;5060523;28;20307;-78
2023/01/04 09:19:32;;;;;;;;;;;;;;;-144.99;100.00;52525.56;5040949;28;19945;-77
2023/01/04 09:21:59;;;;;;;;;;;;;;;-144.99;100.00;52499.06;5045077;28;19973;-77
2023/01/04 09:24:25;;;;;;;;;;;;;;;-144.99;100.00;52521.47;5046617;28;20048;-77
2023/01/04 09:26:52;;;;;;;;;;;;;;;-144.99;100.00;52497.00;5047057;28;19982;-78
2023/01/04 09:29:18;;;;;;;;;;;;;;;-144.99;100.00;52476.63;5063704;28;20017;-77
2023/01/04 09:31:45;;;;;;;;;;;;;;;-144.99;100.00;52492.94;5067502;28;19942;-78
2023/01/04 09:34:13;;;;;;;;;;;;;;;-144.99;100.00;52468.47;5061324;28;19945;-77
2023/01/04 09:36:39;;;;;;;;;;;;;;;-144.99;100.00;52476.63;5039443;28;19999;-78
2023/01/04 09:39:06;;;;;;;;;;;;;;;-144.99;100.00;52517.41;5065552;28;20047;-78
2023/01/04 09:41:35;;;;;;;;;;;;;;;-144.99;100.00;52505.16;5052397;28;20050;-77
2023/01/04 09:44:02;;;;;;;;;;;;;;;-144.99;100.00;52448.09;5045321;28;20234;-79
2023/01/04 09:46:32;;;;;;;;;;;;;;;-144.99;100.00;52521.47;5046554;28;20026;-78
2023/01/04 09:49:04;;;;;;;;;;;;;;;-144.99;100.00;52466.44;5045525;28;20050;-77
2023/01/04 09:51:34;;;;;;;;;;;;;;;-144.99;100.00;52482.75;5041819;28;19988;-77
2023/01/04 09:54:04;;;;;;;;;;;;;;;-144.99;100.00;52488.84;5049441;28;20427;-77
2023/01/04 09:56:32;;;;;;;;;;;;;;;-144.99;100.00;52501.09;5046404;28;19962;-77
2023/01/04 09:59:01;;;;;;;;;;;;;;;-144.99;100.00;52464.41;5043481;28;19943;-77
2023/01/04 10:01:29;;;;;;;;;;;;;;;-144.99;100.00;52468.47;5063047;28;20037;-77
2023/01/04 10:03:59;;;;;;;;;;;;;;;-144.99;100.00;52503.13;5065982;28;19997;-77
2023/01/04 10:06:26;;;;;;;;;;;;;;;-144.99;100.00;52460.31;5060501;28;19974;-77
2023/01/04 10:08:57;;;;;;;;;;;;;;;-144.99;100.00;52537.78;5059383;28;20011;-78
2023/01/04 10:11:30;;;;;;;;;;;;;;;-144.99;100.00;52482.75;5066807;28;19947;-76
2023/01/04 10:14:10;;;;;;;;;;;;;;;-144.99;100.00;52450.13;5064202;28;20306;-76
2023/01/04 10:16:44;;;;;;;;;;;;;;;-144.99;100.00;52417.53;5035665;28;20044;-77
2023/01/04 10:19:20;;;;;;;;;;;;;;;-144.99;100.00;52492.94;5044370;28;19950;-77
2023/01/04 10:21:49;;;;;;;;;;;;;;;-144.99;100.00;52505.16;5044726;28;19952;-77
2023/01/04 10:24:29;;;;;;;;;;;;;;;-144.99;100.00;52492.94;5045453;28;20433;-77
2023/01/04 10:26:57;;;;;;;;;;;;;;;-144.99;100.00;52480.72;5045133;28;20019;-77
2023/01/04 10:29:34;;;;;;;;;;;;;;;-144.99;100.00;52488.84;5047793;28;20007;-77
2023/01/04 10:32:03;;;;;;;;;;;;;;;-144.99;100.00;52482.75;5051107;28;20221;-78
2023/01/04 10:34:32;;;;;;;;;;;;;;;-144.99;100.00;52476.63;5059028;28;20005;-77
2023/01/04 10:37:00;;;;;;;;;;;;;;;-144.99;100.00;52501.09;5069269;28;19940;-77
2023/01/04 10:39:30;;;;;;;;;;;;;;;-144.99;100.00;52501.09;5058847;28;19953;-77
2023/01/04 10:41:58;;;;;;;;;;;;;;;-144.99;100.00;52484.78;5055104;28;19974;-77
2023/01/04 10:44:26;;;;;;;;;;;;;;;-144.99;100.00;52484.78;5057265;28;19949;-77
2023/01/04 10:46:57;;;;;;;;;;;;;;;-144.99;100.00;52450.13;5060529;28;19948;-77
2023/01/04 10:49:28;;;;;;;;;;;;;;;-144.99;100.00;52484.78;5060445;28;19972;-77
2023/01/04 10:51:58;;;;;;;;;;;;;;;-144.99;100.00;52448.09;5060798;28;20005;-76
2023/01/04 10:54:28;;;;;;;;;;;;;;;-144.99;100.00;52476.63;5063849;28;19955;-77
2023/01/04 10:57:01;;;;;;;;;;;;;;;-144.99;100.00;52470.50;5059247;28;19951;-77
2023/01/04 10:59:29;;;;;;;;;;;;;;;-144.99;100.00;52460.31;5059369;28;19950;-78
2023/01/04 11:01:58;;;;;;;;;;;;;;;-144.99;100.00;52474.59;5059995;28;19952;-78
2023/01/04 11:04:27;;;;;;;;;;;;;;;-144.99;100.00;52480.72;5059820;28;20495;-77
2023/01/04 11:06:57;;;;;;;;;;;;;;;-144.99;100.00;52497.00;5059386;28;19949;-77
2023/01/04 11:09:26;;;;;;;;;;;;;;;-144.99;100.00;52464.41;5075315;28;19975;-78
2023/01/04 11:11:55;;;;;;;;;;;;;;;-144.99;100.00;52444.03;5079196;28;19951;-78
2023/01/04 11:14:23;;;;;;;;;;;;;;;-144.99;100.00;52472.56;5074776;28;20106;-77
2023/01/04 11:16:51;;;;;;;;;;;;;;;-144.99;100.00;52468.47;5059282;28;19949;-78
2023/01/04 11:19:17;;;;;;;;;;;;;;;-144.99;100.00;52472.56;5059529;28;20171;-78
2023/01/04 11:21:46;;;;;;;;;;;;;;;-144.99;100.00;52484.78;5059803;28;19950;-78
2023/01/04 11:24:14;;;;;;;;;;;;;;;-144.99;100.00;52499.06;5065429;28;19963;-77
2023/01/04 11:26:42;;;;;;;;;;;;;;;-144.99;100.00;52492.94;5084959;28;19967;-78
2023/01/04 11:29:15;;;;;;;;;;;;;;;-144.99;100.00;52488.84;5067435;28;19987;-78
2023/01/04 11:31:45;;;;;;;;;;;;;;;-144.99;100.00;52456.25;5070674;28;19959;-77
2023/01/04 11:34:12;;;;;;;;;;;;;;;-144.99;100.00;52484.78;5073062;28;19944;-78
2023/01/04 11:36:40;;;;;;;;;;;;;;;-144.99;100.00;52476.63;5079222;28;19995;-77
2023/01/04 11:39:07;;;;;;;;;;;;;;;-144.99;100.00;52452.16;5067279;28;19992;-78
2023/01/04 11:41:34;;;;;;;;;;;;;;;-144.99;100.00;52488.84;5065982;28;19981;-78
2023/01/04 11:44:02;;;;;;;;;;;;;;;-144.99;100.00;52488.84;5065914;28;20049;-78
2023/01/04 11:46:29;;;;;;;;;;;;;;;-144.99;100.00;52478.66;5065341;28;19984;-78
2023/01/04 11:48:57;;;;;;;;;;;;;;;-144.99;100.00;52488.84;5065327;28;19954;-78
2023/01/04 11:51:36;;;;;;;;;;;;;;;-144.99;100.00;52497.00;5066381;28;19946;-78
2023/01/04 11:54:03;;;;;;;;;;;;;;;-144.99;100.00;52480.72;5070472;28;20006;-78
2023/01/04 11:56:31;;;;;;;;;;;;;;;-144.99;100.00;52497.00;5069708;28;19966;-77
2023/01/04 11:59:05;;;;;;;;;;;;;;;-144.99;100.00;52482.75;5080514;28;20128;-78
2023/01/04 12:01:32;;;;;;;;;;;;;;;-144.99;100.00;52476.63;5066556;28;19963;-78
2023/01/04 12:04:01;;;;;;;;;;;;;;;-144.99;100.00;52480.72;5067152;28;19947;-78
2023/01/04 12:06:32;;;;;;;;;;;;;;;-144.99;100.00;52433.81;5067522;28;19961;-78
2023/01/04 12:08:58;;;;;;;;;;;;;;;-144.99;100.00;52450.13;5067617;28;19952;-78
2023/01/04 12:11:28;;;;;;;;;;;;;;;-144.99;100.00;52464.41;5068513;28;19952;-78
2023/01/04 12:13:55;;;;;;;;;;;;;;;-144.99;100.00;52452.16;5067821;28;19975;-78
2023/01/04 12:16:26;;;;;;;;;;;;;;;-144.99;100.00;52456.25;5054322;28;20024;-79
2023/01/04 12:18:53;;;;;;;;;;;;;;;-144.99;100.00;52464.41;5058356;28;19977;-78
2023/01/04 12:21:22;;;;;;;;;;;;;;;-144.99;100.00;52509.25;5068173;28;20033;-78
2023/01/04 12:23:51;;;;;;;;;;;;;;;-144.99;100.00;52476.63;5066233;28;20013;-77
2023/01/04 12:26:19;;;;;;;;;;;;;;;-144.99;100.00;52478.66;5065366;28;19969;-78
2023/01/04 12:28:47;;;;;;;;;;;;;;;-144.99;100.00;52501.09;5063095;28;19960;-78
2023/01/04 12:31:32;;;;;;;;;;;;;;;-144.99;100.00;52476.63;5064641;28;19957;-78
2023/01/04 12:34:20;;;;;;;;;;;;;;;-144.99;100.00;52462.34;5077702;28;19938;-77
2023/01/04 12:36:58;;;;;;;;;;;;;;;-144.99;100.00;52521.47;5065272;28;19943;-78
2023/01/04 12:39:40;;;;;;;;;;;;;;;-144.99;100.00;52484.78;5066653;28;19952;-77
2023/01/04 12:42:12;;;;;;;;;;;;;;;-144.99;100.00;52460.31;5063091;28;20316;-77
2023/01/04 12:44:57;;;;;;;;;;;;;;;-144.99;100.00;52484.78;5061970;28;20028;-76
2023/01/04 12:50:30;;;;;;;;;;;;;;;-144.99;100.00;52460.31;5049912;28;19953;-77
2023/01/04 12:52:59;;;;;;;;;;;;;;;-144.99;100.00;52482.75;5050822;28;19940;-77
2023/01/04 12:55:43;;;;;;;;;;;;;;;-144.99;100.00;52509.25;5047165;28;20010;-77
2023/01/04 12:58:24;;;;;;;;;;;;;;;-144.99;100.00;52497.00;5025841;28;20001;-77
2023/01/04 13:01:22;;;;;;;;;;;;;;;-144.99;100.00;52501.09;5065795;28;20002;-77
2023/01/04 13:03:50;;;;;;;;;;;;;;;-144.99;100.00;52492.94;5056168;28;20329;-77
2023/01/04 13:06:20;;;;;;;;;;;;;;;-144.99;100.00;52484.78;5046291;28;20447;-77
2023/01/04 13:08:50;;;;;;;;;;;;;;;-144.99;100.00;52472.56;5058932;28;20013;-77
2023/01/04 13:11:24;;;;;;;;;;;;;;;-144.99;100.00;52490.91;5066685;28;19960;-76
2023/01/04 13:13:55;;;;;;;;;;;;;;;-144.99;100.00;52478.66;5066081;28;20011;-76
2023/01/04 13:16:25;;;;;;;;;;;;;;;-144.99;100.00;52458.28;5045544;28;20573;-76